sensor_id;sensor_type;location;lat;lon;timestamp;pressure;altitude;pressure_sealevel;temperature;humidity
70684;BME280;58263;48.146;11.440;2024-03-08T00:00:15;95563.47;;;2.51;75.10
70684;BME280;58263;48.146;11.440;2024-03-08T00:02:47;95566.03;;;2.29;75.32
70684;BME280;58263;48.146;11.440;2024-03-08T00:05:13;95570.59;;;2.35;75.45
70684;BME280;58263;48.146;11.440;2024-03-08T00:07:39;95559.28;;;2.42;75.11
70684;BME280;58263;48.146;11.440;2024-03-08T00:10:10;95561.16;;;2.48;75.06
70684;BME280;58263;48.146;11.440;2024-03-08T00:12:37;95559.72;;;2.45;74.69
70684;BME280;58263;48.146;11.440;2024-03-08T00:15:02;95560.47;;;2.39;75.07
70684;BME280;58263;48.146;11.440;2024-03-08T00:17:27;95559.47;;;2.40;75.33
70684;BME280;58263;48.146;11.440;2024-03-08T00:19:53;95562.84;;;2.34;75.30
70684;BME280;58263;48.146;11.440;2024-03-08T00:22:18;95565.19;;;2.29;74.75
70684;BME280;58263;48.146;11.440;2024-03-08T00:24:44;95555.34;;;2.38;75.08
70684;BME280;58263;48.146;11.440;2024-03-08T00:27:10;95544.22;;;2.42;74.28
70684;BME280;58263;48.146;11.440;2024-03-08T00:29:36;95544.59;;;2.39;74.62
70684;BME280;58263;48.146;11.440;2024-03-08T00:32:04;95544.78;;;2.23;74.72
70684;BME280;58263;48.146;11.440;2024-03-08T00:34:29;95546.16;;;2.33;74.73
70684;BME280;58263;48.146;11.440;2024-03-08T00:36:54;95540.38;;;2.30;74.64
70684;BME280;58263;48.146;11.440;2024-03-08T00:39:19;95538.03;;;2.35;74.39
70684;BME280;58263;48.146;11.440;2024-03-08T00:41:46;95531.75;;;2.21;74.67
70684;BME280;58263;48.146;11.440;2024-03-08T00:44:11;95526.69;;;2.26;75.29
70684;BME280;58263;48.146;11.440;2024-03-08T00:46:36;95521.88;;;2.30;75.24
70684;BME280;58263;48.146;11.440;2024-03-08T00:49:02;95523.16;;;2.19;74.96
70684;BME280;58263;48.146;11.440;2024-03-08T00:51:27;95519.13;;;2.23;74.72
70684;BME280;58263;48.146;11.440;2024-03-08T00:53:52;95516.59;;;2.15;75.28
70684;BME280;58263;48.146;11.440;2024-03-08T00:56:17;95515.50;;;2.09;75.29
70684;BME280;58263;48.146;11.440;2024-03-08T00:58:43;95524.16;;;2.03;75.67
70684;BME280;58263;48.146;11.440;2024-03-08T01:01:08;95522.53;;;2.02;75.46
70684;BME280;58263;48.146;11.440;2024-03-08T01:03:35;95525.31;;;2.15;75.27
70684;BME280;58263;48.146;11.440;2024-03-08T01:06:01;95512.03;;;2.09;75.24
70684;BME280;58263;48.146;11.440;2024-03-08T01:08:26;95521.88;;;2.15;75.34
70684;BME280;58263;48.146;11.440;2024-03-08T01:10:52;95511.28;;;2.15;75.07
70684;BME280;58263;48.146;11.440;2024-03-08T01:13:18;95506.81;;;2.15;75.31
70684;BME280;58263;48.146;11.440;2024-03-08T01:15:44;95500.81;;;2.07;75.27
70684;BME280;58263;48.146;11.440;2024-03-08T01:18:09;95503.06;;;2.10;75.43
70684;BME280;58263;48.146;11.440;2024-03-08T01:20:35;95494.88;;;2.05;75.70
70684;BME280;58263;48.146;11.440;2024-03-08T01:23:00;95486.66;;;2.14;75.07
70684;BME280;58263;48.146;11.440;2024-03-08T01:25:26;95483.94;;;2.08;75.16
70684;BME280;58263;48.146;11.440;2024-03-08T01:27:52;95481.72;;;2.11;75.21
70684;BME280;58263;48.146;11.440;2024-03-08T01:30:19;95478.84;;;2.06;75.62
70684;BME280;58263;48.146;11.440;2024-03-08T01:32:44;95469.88;;;2.07;75.23
70684;BME280;58263;48.146;11.440;2024-03-08T01:35:09;95472.47;;;2.00;75.58
70684;BME280;58263;48.146;11.440;2024-03-08T01:37:35;95459.31;;;1.92;75.95
70684;BME280;58263;48.146;11.440;2024-03-08T01:40:00;95459.06;;;1.87;76.48
70684;BME280;58263;48.146;11.440;2024-03-08T01:42:26;95467.16;;;2.00;75.89
70684;BME280;58263;48.146;11.440;2024-03-08T01:44:51;95470.81;;;1.99;76.21
70684;BME280;58263;48.146;11.440;2024-03-08T01:47:17;95463.69;;;2.00;76.26
70684;BME280;58263;48.146;11.440;2024-03-08T01:49:43;95466.59;;;2.05;76.04
70684;BME280;58263;48.146;11.440;2024-03-08T01:52:08;95458.50;;;1.92;76.05
70684;BME280;58263;48.146;11.440;2024-03-08T01:54:34;95453.19;;;1.92;75.97
70684;BME280;58263;48.146;11.440;2024-03-08T01:57:01;95444.28;;;1.93;76.41
70684;BME280;58263;48.146;11.440;2024-03-08T01:59:26;95444.19;;;1.86;76.70
70684;BME280;58263;48.146;11.440;2024-03-08T02:01:55;95445.53;;;1.97;76.62
70684;BME280;58263;48.146;11.440;2024-03-08T02:04:20;95444.47;;;1.91;76.58
70684;BME280;58263;48.146;11.440;2024-03-08T02:06:46;95442.09;;;1.81;76.72
70684;BME280;58263;48.146;11.440;2024-03-08T02:09:11;95435.53;;;1.77;77.31
70684;BME280;58263;48.146;11.440;2024-03-08T02:11:37;95439.81;;;1.63;77.89
70684;BME280;58263;48.146;11.440;2024-03-08T02:14:02;95431.78;;;1.72;77.39
70684;BME280;58263;48.146;11.440;2024-03-08T02:16:27;95431.78;;;1.72;77.76
70684;BME280;58263;48.146;11.440;2024-03-08T02:18:53;95431.78;;;1.72;77.47
70684;BME280;58263;48.146;11.440;2024-03-08T02:21:18;95436.16;;;1.79;77.17
70684;BME280;58263;48.146;11.440;2024-03-08T02:23:44;95421.75;;;1.67;77.32
70684;BME280;58263;48.146;11.440;2024-03-08T02:26:09;95429.22;;;1.63;77.54
70684;BME280;58263;48.146;11.440;2024-03-08T02:28:34;95428.94;;;1.73;77.75
70684;BME280;58263;48.146;11.440;2024-03-08T02:31:00;95425.31;;;1.74;77.56
70684;BME280;58263;48.146;11.440;2024-03-08T02:33:27;95422.94;;;1.79;77.52
70684;BME280;58263;48.146;11.440;2024-03-08T02:35:52;95428.88;;;1.66;77.63
70684;BME280;58263;48.146;11.440;2024-03-08T02:38:19;95422.75;;;1.66;78.12
70684;BME280;58263;48.146;11.440;2024-03-08T02:40:46;95420.66;;;1.61;78.01
70684;BME280;58263;48.146;11.440;2024-03-08T02:43:13;95421.38;;;1.55;78.45
70684;BME280;58263;48.146;11.440;2024-03-08T02:45:39;95417.47;;;1.51;78.59
70684;BME280;58263;48.146;11.440;2024-03-08T02:48:07;95419.78;;;1.54;78.80
70684;BME280;58263;48.146;11.440;2024-03-08T02:50:32;95415.66;;;1.66;78.07
70684;BME280;58263;48.146;11.440;2024-03-08T02:52:59;95410.72;;;1.63;78.03
70684;BME280;58263;48.146;11.440;2024-03-08T02:55:26;95412.09;;;1.59;77.97
70684;BME280;58263;48.146;11.440;2024-03-08T02:57:52;95413.38;;;1.63;78.14
70684;BME280;58263;48.146;11.440;2024-03-08T03:00:17;95411.66;;;1.56;78.27
70684;BME280;58263;48.146;11.440;2024-03-08T03:02:44;95412.84;;;1.53;78.48
70684;BME280;58263;48.146;11.440;2024-03-08T03:05:09;95407.72;;;1.51;78.77
70684;BME280;58263;48.146;11.440;2024-03-08T03:07:37;95401.25;;;1.39;78.94
70684;BME280;58263;48.146;11.440;2024-03-08T03:10:02;95397.69;;;1.47;78.90
70684;BME280;58263;48.146;11.440;2024-03-08T03:12:28;95394.78;;;1.42;79.00
70684;BME280;58263;48.146;11.440;2024-03-08T03:14:54;95401.00;;;1.49;78.98
70684;BME280;58263;48.146;11.440;2024-03-08T03:17:19;95401.00;;;1.49;79.03
70684;BME280;58263;48.146;11.440;2024-03-08T03:19:45;95398.44;;;1.41;79.07
70684;BME280;58263;48.146;11.440;2024-03-08T03:22:11;95389.22;;;1.37;78.94
70684;BME280;58263;48.146;11.440;2024-03-08T03:24:37;95394.44;;;1.45;79.39
70684;BME280;58263;48.146;11.440;2024-03-08T03:27:04;95396.31;;;1.36;79.33
70684;BME280;58263;48.146;11.440;2024-03-08T03:29:36;95396.03;;;1.46;79.13
70684;BME280;58263;48.146;11.440;2024-03-08T03:32:01;95389.66;;;1.40;79.36
70684;BME280;58263;48.146;11.440;2024-03-08T03:34:28;95396.78;;;1.40;79.29
70684;BME280;58263;48.146;11.440;2024-03-08T03:36:54;95393.78;;;1.43;79.85
70684;BME280;58263;48.146;11.440;2024-03-08T03:39:20;95387.03;;;1.40;79.26
70684;BME280;58263;48.146;11.440;2024-03-08T03:41:48;95385.75;;;1.21;79.99
70684;BME280;58263;48.146;11.440;2024-03-08T03:44:17;95389.56;;;1.33;79.76
70684;BME280;58263;48.146;11.440;2024-03-08T03:46:43;95387.41;;;1.37;79.58
70684;BME280;58263;48.146;11.440;2024-03-08T03:49:11;95376.28;;;1.42;79.82
70684;BME280;58263;48.146;11.440;2024-03-08T03:51:37;95382.94;;;1.38;79.56
70684;BME280;58263;48.146;11.440;2024-03-08T03:54:02;95385.41;;;1.39;79.64
70684;BME280;58263;48.146;11.440;2024-03-08T03:56:29;95386.31;;;1.31;79.84
70684;BME280;58263;48.146;11.440;2024-03-08T03:58:55;95377.00;;;1.35;79.87
70684;BME280;58263;48.146;11.440;2024-03-08T04:01:21;95373.81;;;1.40;79.55
70684;BME280;58263;48.146;11.440;2024-03-08T04:03:46;95376.47;;;1.40;79.46
70684;BME280;58263;48.146;11.440;2024-03-08T04:06:12;95373.38;;;1.22;80.27
70684;BME280;58263;48.146;11.440;2024-03-08T04:08:37;95374.47;;;1.27;79.88
70684;BME280;58263;48.146;11.440;2024-03-08T04:11:03;95382.38;;;1.27;80.17
70684;BME280;58263;48.146;11.440;2024-03-08T04:13:28;95379.75;;;1.27;80.16
70684;BME280;58263;48.146;11.440;2024-03-08T04:15:54;95368.19;;;1.28;80.21
70684;BME280;58263;48.146;11.440;2024-03-08T04:18:19;95365.44;;;1.22;80.50
70684;BME280;58263;48.146;11.440;2024-03-08T04:20:45;95380.03;;;1.32;80.34
70684;BME280;58263;48.146;11.440;2024-03-08T04:23:10;95365.63;;;1.35;80.14
70684;BME280;58263;48.146;11.440;2024-03-08T04:25:35;95369.81;;;1.29;80.14
70684;BME280;58263;48.146;11.440;2024-03-08T04:28:01;95371.06;;;1.33;79.81
70684;BME280;58263;48.146;11.440;2024-03-08T04:30:26;95369.47;;;1.32;79.86
70684;BME280;58263;48.146;11.440;2024-03-08T04:32:53;95367.63;;;1.33;80.08
70684;BME280;58263;48.146;11.440;2024-03-08T04:35:19;95366.91;;;1.24;80.22
70684;BME280;58263;48.146;11.440;2024-03-08T04:37:45;95363.88;;;1.12;80.09
70684;BME280;58263;48.146;11.440;2024-03-08T04:40:10;95367.34;;;1.28;80.27
70684;BME280;58263;48.146;11.440;2024-03-08T04:42:37;95371.06;;;1.04;81.01
70684;BME280;58263;48.146;11.440;2024-03-08T04:45:03;95370.06;;;1.20;80.59
70684;BME280;58263;48.146;11.440;2024-03-08T04:47:29;95367.59;;;1.03;80.92
70684;BME280;58263;48.146;11.440;2024-03-08T04:49:54;95365.16;;;1.16;80.90
70684;BME280;58263;48.146;11.440;2024-03-08T04:52:21;95362.63;;;1.23;80.69
70684;BME280;58263;48.146;11.440;2024-03-08T04:54:47;95364.28;;;1.24;80.79
70684;BME280;58263;48.146;11.440;2024-03-08T04:57:12;95363.63;;;1.22;80.80
70684;BME280;58263;48.146;11.440;2024-03-08T04:59:37;95363.88;;;1.12;80.75
70684;BME280;58263;48.146;11.440;2024-03-08T05:02:03;95362.34;;;1.18;80.43
70684;BME280;58263;48.146;11.440;2024-03-08T05:04:29;95358.97;;;1.09;80.70
70684;BME280;58263;48.146;11.440;2024-03-08T05:06:54;95353.50;;;1.11;80.78
70684;BME280;58263;48.146;11.440;2024-03-08T05:09:20;95350.88;;;1.11;80.84
70684;BME280;58263;48.146;11.440;2024-03-08T05:11:46;95356.47;;;1.08;81.07
70684;BME280;58263;48.146;11.440;2024-03-08T05:14:15;95358.50;;;1.06;81.04
70684;BME280;58263;48.146;11.440;2024-03-08T05:16:46;95359.97;;;1.23;80.60
70684;BME280;58263;48.146;11.440;2024-03-08T05:19:15;95355.59;;;1.15;81.05
70684;BME280;58263;48.146;11.440;2024-03-08T05:21:42;95364.16;;;1.03;81.45
70684;BME280;58263;48.146;11.440;2024-03-08T05:24:08;95366.34;;;1.14;80.82
70684;BME280;58263;48.146;11.440;2024-03-08T05:26:35;95360.84;;;1.00;81.66
70684;BME280;58263;48.146;11.440;2024-03-08T05:29:00;95361.59;;;0.94;81.76
70684;BME280;58263;48.146;11.440;2024-03-08T05:31:25;95351.94;;;1.01;81.25
70684;BME280;58263;48.146;11.440;2024-03-08T05:33:50;95353.94;;;0.99;81.17
70684;BME280;58263;48.146;11.440;2024-03-08T05:36:16;95347.94;;;1.06;81.43
70684;BME280;58263;48.146;11.440;2024-03-08T05:38:42;95339.03;;;1.07;81.49
70684;BME280;58263;48.146;11.440;2024-03-08T05:41:09;95347.47;;;1.02;81.19
70684;BME280;58263;48.146;11.440;2024-03-08T05:43:34;95352.66;;;0.95;81.40
70684;BME280;58263;48.146;11.440;2024-03-08T05:45:59;95345.00;;;1.00;81.13
70684;BME280;58263;48.146;11.440;2024-03-08T05:48:24;95344.09;;;0.93;81.68
70684;BME280;58263;48.146;11.440;2024-03-08T05:50:50;95349.66;;;0.98;81.18
70684;BME280;58263;48.146;11.440;2024-03-08T05:53:15;95341.75;;;0.98;81.17
70684;BME280;58263;48.146;11.440;2024-03-08T05:55:40;95344.09;;;0.93;81.38
70684;BME280;58263;48.146;11.440;2024-03-08T05:58:06;95342.47;;;1.07;81.14
70684;BME280;58263;48.146;11.440;2024-03-08T06:00:33;95340.72;;;0.99;81.10
70684;BME280;58263;48.146;11.440;2024-03-08T06:02:58;95347.13;;;0.90;81.50
70684;BME280;58263;48.146;11.440;2024-03-08T06:05:24;95346.53;;;0.80;81.62
70684;BME280;58263;48.146;11.440;2024-03-08T06:07:49;95347.13;;;0.90;81.55
70684;BME280;58263;48.146;11.440;2024-03-08T06:10:15;95346.63;;;0.87;81.89
70684;BME280;58263;48.146;11.440;2024-03-08T06:12:42;95340.47;;;0.94;81.82
70684;BME280;58263;48.146;11.440;2024-03-08T06:15:08;95338.91;;;0.85;82.17
70684;BME280;58263;48.146;11.440;2024-03-08T06:17:38;95344.09;;;0.93;81.79
70684;BME280;58263;48.146;11.440;2024-03-08T06:20:03;95333.34;;;0.95;81.69
70684;BME280;58263;48.146;11.440;2024-03-08T06:22:39;95333.38;;;1.10;81.19
70684;BME280;58263;48.146;11.440;2024-03-08T06:25:06;95333.75;;;1.07;81.22
70684;BME280;58263;48.146;11.440;2024-03-08T06:27:32;95337.09;;;1.15;81.24
70684;BME280;58263;48.146;11.440;2024-03-08T06:29:59;95337.19;;;1.22;80.89
70684;BME280;58263;48.146;11.440;2024-03-08T06:32:24;95343.22;;;1.16;81.14
70684;BME280;58263;48.146;11.440;2024-03-08T06:34:49;95353.94;;;0.99;81.71
70684;BME280;58263;48.146;11.440;2024-03-08T06:37:15;95345.31;;;1.21;80.97
70684;BME280;58263;48.146;11.440;2024-03-08T06:39:40;95343.22;;;1.16;81.44
70684;BME280;58263;48.146;11.440;2024-03-08T06:42:05;95345.31;;;1.21;81.31
70684;BME280;58263;48.146;11.440;2024-03-08T06:44:31;95342.47;;;1.22;81.02
70684;BME280;58263;48.146;11.440;2024-03-08T06:46:56;95341.09;;;1.41;80.34
70684;BME280;58263;48.146;11.440;2024-03-08T06:49:21;95339.94;;;1.14;81.39
70684;BME280;58263;48.146;11.440;2024-03-08T06:51:47;95342.47;;;1.22;81.14
70684;BME280;58263;48.146;11.440;2024-03-08T06:54:12;95346.47;;;1.48;80.94
70684;BME280;58263;48.146;11.440;2024-03-08T06:56:37;95341.38;;;1.61;80.04
70684;BME280;58263;48.146;11.440;2024-03-08T06:59:03;95344.19;;;1.75;79.90
70684;BME280;58263;48.146;11.440;2024-03-08T07:01:29;95345.72;;;1.69;79.56
70684;BME280;58263;48.146;11.440;2024-03-08T07:03:57;95344.00;;;1.76;79.82
70684;BME280;58263;48.146;11.440;2024-03-08T07:06:22;95344.06;;;1.83;79.35
70684;BME280;58263;48.146;11.440;2024-03-08T07:08:48;95335.22;;;1.76;78.95
70684;BME280;58263;48.146;11.440;2024-03-08T07:11:14;95340.41;;;1.84;79.12
70684;BME280;58263;48.146;11.440;2024-03-08T07:13:43;95337.19;;;2.03;78.46
70684;BME280;58263;48.146;11.440;2024-03-08T07:16:08;95336.59;;;2.08;78.27
70684;BME280;58263;48.146;11.440;2024-03-08T07:18:33;95338.19;;;2.02;78.38
70684;BME280;58263;48.146;11.440;2024-03-08T07:21:01;95338.69;;;2.13;78.11
70684;BME280;58263;48.146;11.440;2024-03-08T07:23:27;95329.63;;;2.22;77.37
70684;BME280;58263;48.146;11.440;2024-03-08T07:26:30;95323.38;;;2.30;76.92
70684;BME280;58263;48.146;11.440;2024-03-08T07:28:56;95328.88;;;2.28;76.85
70684;BME280;58263;48.146;11.440;2024-03-08T07:31:23;95322.66;;;2.36;76.43
70684;BME280;58263;48.146;11.440;2024-03-08T07:34:00;95323.59;;;2.28;77.04
70684;BME280;58263;48.146;11.440;2024-03-08T07:36:25;95327.09;;;2.35;76.46
70684;BME280;58263;48.146;11.440;2024-03-08T07:38:50;95318.63;;;2.40;76.40
70684;BME280;58263;48.146;11.440;2024-03-08T07:41:16;95317.50;;;2.56;76.42
70684;BME280;58263;48.146;11.440;2024-03-08T07:43:41;95313.53;;;2.67;76.78
70684;BME280;58263;48.146;11.440;2024-03-08T07:46:07;95320.13;;;2.78;75.88
70684;BME280;58263;48.146;11.440;2024-03-08T07:48:35;95319.13;;;2.79;75.76
70684;BME280;58263;48.146;11.440;2024-03-08T07:51:01;95311.84;;;2.87;75.70
70684;BME280;58263;48.146;11.440;2024-03-08T07:53:28;95316.78;;;2.91;75.46
70684;BME280;58263;48.146;11.440;2024-03-08T07:55:53;95312.53;;;2.96;75.46
70684;BME280;58263;48.146;11.440;2024-03-08T07:58:18;95304.13;;;3.21;75.06
70684;BME280;58263;48.146;11.440;2024-03-08T08:00:43;95308.00;;;3.25;74.45
70684;BME280;58263;48.146;11.440;2024-03-08T08:03:09;95302.63;;;3.47;74.17
70684;BME280;58263;48.146;11.440;2024-03-08T08:05:34;95298.78;;;3.56;73.48
70684;BME280;58263;48.146;11.440;2024-03-08T08:08:03;95304.13;;;3.69;72.66
70684;BME280;58263;48.146;11.440;2024-03-08T08:10:31;95296.50;;;3.53;72.82
70684;BME280;58263;48.146;11.440;2024-03-08T08:12:58;95307.69;;;3.90;71.80
70684;BME280;58263;48.146;11.440;2024-03-08T08:15:23;95300.56;;;3.97;71.43
70684;BME280;58263;48.146;11.440;2024-03-08T08:17:48;95297.13;;;4.17;70.78
70684;BME280;58263;48.146;11.440;2024-03-08T08:20:13;95296.53;;;4.35;70.17
70684;BME280;58263;48.146;11.440;2024-03-08T08:22:42;95293.47;;;4.58;69.42
70684;BME280;58263;48.146;11.440;2024-03-08T08:25:08;95295.34;;;4.64;68.93
70684;BME280;58263;48.146;11.440;2024-03-08T08:27:33;95290.25;;;4.69;68.64
70684;BME280;58263;48.146;11.440;2024-03-08T08:29:59;95285.72;;;4.90;67.51
70684;BME280;58263;48.146;11.440;2024-03-08T08:32:24;95292.69;;;4.91;67.34
70684;BME280;58263;48.146;11.440;2024-03-08T08:34:49;95276.91;;;5.10;66.29
70684;BME280;58263;48.146;11.440;2024-03-08T08:37:15;95280.75;;;5.27;66.42
70684;BME280;58263;48.146;11.440;2024-03-08T08:39:41;95280.16;;;5.25;65.90
70684;BME280;58263;48.146;11.440;2024-03-08T08:42:06;95274.84;;;5.18;66.03
70684;BME280;58263;48.146;11.440;2024-03-08T08:44:34;95267.25;;;5.29;66.03
70684;BME280;58263;48.146;11.440;2024-03-08T08:47:00;95266.00;;;5.31;64.92
70684;BME280;58263;48.146;11.440;2024-03-08T08:49:25;95262.88;;;5.48;64.92
70684;BME280;58263;48.146;11.440;2024-03-08T08:51:51;95259.41;;;5.99;63.92
70684;BME280;58263;48.146;11.440;2024-03-08T08:54:16;95253.88;;;6.33;62.90
70684;BME280;58263;48.146;11.440;2024-03-08T08:56:42;95255.91;;;6.63;63.11
70684;BME280;58263;48.146;11.440;2024-03-08T08:59:09;95251.25;;;6.26;62.90
70684;BME280;58263;48.146;11.440;2024-03-08T09:01:34;95251.84;;;6.79;62.37
70684;BME280;58263;48.146;11.440;2024-03-08T09:04:00;95248.63;;;6.95;61.41
70684;BME280;58263;48.146;11.440;2024-03-08T09:06:25;95250.28;;;7.33;60.00
70684;BME280;58263;48.146;11.440;2024-03-08T09:08:51;95236.84;;;6.84;60.33
70684;BME280;58263;48.146;11.440;2024-03-08T09:11:16;95237.91;;;7.39;59.73
70684;BME280;58263;48.146;11.440;2024-03-08T09:13:44;95233.25;;;7.34;60.23
70684;BME280;58263;48.146;11.440;2024-03-08T09:16:09;95231.72;;;7.75;58.41
70684;BME280;58263;48.146;11.440;2024-03-08T09:18:35;95235.88;;;7.71;58.21
70684;BME280;58263;48.146;11.440;2024-03-08T09:21:01;95222.00;;;8.11;57.75
70684;BME280;58263;48.146;11.440;2024-03-08T09:23:26;95221.34;;;8.28;57.81
70684;BME280;58263;48.146;11.440;2024-03-08T09:25:58;95220.31;;;8.29;56.93
70684;BME280;58263;48.146;11.440;2024-03-08T09:28:23;95220.63;;;7.78;58.04
70684;BME280;58263;48.146;11.440;2024-03-08T09:30:49;95215.03;;;8.53;56.14
70684;BME280;58263;48.146;11.440;2024-03-08T09:33:15;95207.97;;;9.06;54.57
70684;BME280;58263;48.146;11.440;2024-03-08T09:35:44;95207.09;;;9.29;53.50
70684;BME280;58263;48.146;11.440;2024-03-08T09:38:12;95202.56;;;9.70;52.51
70684;BME280;58263;48.146;11.440;2024-03-08T09:40:38;95193.72;;;9.98;51.14
70684;BME280;58263;48.146;11.440;2024-03-08T09:43:04;95202.31;;;10.01;51.70
70684;BME280;58263;48.146;11.440;2024-03-08T09:45:31;95198.84;;;10.00;51.41
70684;BME280;58263;48.146;11.440;2024-03-08T09:48:01;95190.31;;;9.45;51.93
70684;BME280;58263;48.146;11.440;2024-03-08T09:50:26;95184.31;;;9.26;52.51
70684;BME280;58263;48.146;11.440;2024-03-08T09:52:53;95185.75;;;9.46;52.54
70684;BME280;58263;48.146;11.440;2024-03-08T09:55:22;95193.88;;;9.10;52.57
70684;BME280;58263;48.146;11.440;2024-03-08T09:57:47;95200.81;;;8.40;53.49
70684;BME280;58263;48.146;11.440;2024-03-08T10:00:33;95191.66;;;8.95;53.83
70684;BME280;58263;48.146;11.440;2024-03-08T10:03:02;95181.88;;;9.01;52.77
70684;BME280;58263;48.146;11.440;2024-03-08T10:05:28;95184.97;;;9.45;52.98
70684;BME280;58263;48.146;11.440;2024-03-08T10:07:53;95188.16;;;9.59;52.88
70684;BME280;58263;48.146;11.440;2024-03-08T10:10:18;95180.53;;;9.80;52.87
70684;BME280;58263;48.146;11.440;2024-03-08T10:12:44;95176.38;;;10.01;52.25
70684;BME280;58263;48.146;11.440;2024-03-08T10:15:10;95173.44;;;10.03;52.09
70684;BME280;58263;48.146;11.440;2024-03-08T10:17:37;95177.56;;;10.39;51.69
70684;BME280;58263;48.146;11.440;2024-03-08T10:20:13;95165.75;;;10.91;50.35
70684;BME280;58263;48.146;11.440;2024-03-08T10:22:40;95163.66;;;11.15;48.95
70684;BME280;58263;48.146;11.440;2024-03-08T10:25:09;95159.25;;;11.48;47.98
70684;BME280;58263;48.146;11.440;2024-03-08T10:27:35;95163.66;;;11.60;48.43
70684;BME280;58263;48.146;11.440;2024-03-08T10:30:01;95150.75;;;11.57;47.58
70684;BME280;58263;48.146;11.440;2024-03-08T10:32:26;95155.63;;;12.09;47.65
70684;BME280;58263;48.146;11.440;2024-03-08T10:34:51;95156.66;;;12.36;46.26
70684;BME280;58263;48.146;11.440;2024-03-08T10:37:21;95152.66;;;12.38;45.86
70684;BME280;58263;48.146;11.440;2024-03-08T10:39:56;95145.66;;;13.91;43.05
70684;BME280;58263;48.146;11.440;2024-03-08T10:42:28;95143.22;;;15.18;40.79
70684;BME280;58263;48.146;11.440;2024-03-08T10:45:11;95144.31;;;16.67;37.04
70684;BME280;58263;48.146;11.440;2024-03-08T10:47:41;95134.63;;;17.44;35.47
70684;BME280;58263;48.146;11.440;2024-03-08T10:52:35;95130.09;;;18.40;33.62
70684;BME280;58263;48.146;11.440;2024-03-08T10:55:02;95134.69;;;20.31;31.04
70684;BME280;58263;48.146;11.440;2024-03-08T10:57:27;95125.09;;;21.33;28.92
70684;BME280;58263;48.146;11.440;2024-03-08T10:59:52;95125.28;;;21.05;28.91
70684;BME280;58263;48.146;11.440;2024-03-08T11:02:19;95117.44;;;21.92;28.20
70684;BME280;58263;48.146;11.440;2024-03-08T11:04:48;95116.34;;;22.28;27.28
70684;BME280;58263;48.146;11.440;2024-03-08T11:07:15;95109.84;;;23.21;26.25
70684;BME280;58263;48.146;11.440;2024-03-08T11:09:43;95103.03;;;23.95;25.61
70684;BME280;58263;48.146;11.440;2024-03-08T11:12:29;95097.56;;;24.80;24.45
70684;BME280;58263;48.146;11.440;2024-03-08T11:15:02;95093.69;;;26.01;22.56
70684;BME280;58263;48.146;11.440;2024-03-08T11:20:14;95090.25;;;27.46;20.16
70684;BME280;58263;48.146;11.440;2024-03-08T11:22:55;95086.78;;;27.81;19.39
70684;BME280;58263;48.146;11.440;2024-03-08T11:28:20;95078.72;;;26.80;20.30
70684;BME280;58263;48.146;11.440;2024-03-08T11:33:36;95066.19;;;29.78;17.93
70684;BME280;58263;48.146;11.440;2024-03-08T11:36:10;95069.66;;;29.05;18.24
70684;BME280;58263;48.146;11.440;2024-03-08T11:38:43;95059.19;;;29.61;18.03
70684;BME280;58263;48.146;11.440;2024-03-08T11:41:09;95052.41;;;30.08;17.60
70684;BME280;58263;48.146;11.440;2024-03-08T11:43:39;95053.59;;;29.57;17.96
70684;BME280;58263;48.146;11.440;2024-03-08T11:46:10;95059.25;;;29.18;18.41
70684;BME280;58263;48.146;11.440;2024-03-08T11:48:37;95052.94;;;27.32;20.17
70684;BME280;58263;48.146;11.440;2024-03-08T11:51:03;95052.91;;;26.85;20.57
70684;BME280;58263;48.146;11.440;2024-03-08T11:53:30;95054.66;;;26.77;20.61
70684;BME280;58263;48.146;11.440;2024-03-08T11:56:06;95043.47;;;26.57;20.62
70684;BME280;58263;48.146;11.440;2024-03-08T11:58:31;95040.09;;;28.43;19.27
70684;BME280;58263;48.146;11.440;2024-03-08T12:01:05;95037.31;;;29.25;18.33
70684;BME280;58263;48.146;11.440;2024-03-08T12:03:31;95035.59;;;29.90;17.60
70684;BME280;58263;48.146;11.440;2024-03-08T12:06:01;95036.75;;;30.50;17.15
70684;BME280;58263;48.146;11.440;2024-03-08T12:08:30;95019.63;;;30.41;17.37
70684;BME280;58263;48.146;11.440;2024-03-08T12:10:55;95016.16;;;30.81;17.19
70684;BME280;58263;48.146;11.440;2024-03-08T12:13:26;95012.06;;;31.54;16.45
70684;BME280;58263;48.146;11.440;2024-03-08T12:15:56;95015.91;;;31.91;16.12
70684;BME280;58263;48.146;11.440;2024-03-08T12:18:21;95008.22;;;31.62;15.91
70684;BME280;58263;48.146;11.440;2024-03-08T12:20:47;95007.78;;;31.12;16.50
70684;BME280;58263;48.146;11.440;2024-03-08T12:23:15;94997.03;;;31.55;16.56
70684;BME280;58263;48.146;11.440;2024-03-08T12:25:41;95000.78;;;31.29;16.09
70684;BME280;58263;48.146;11.440;2024-03-08T12:28:11;94984.50;;;31.72;16.00
70684;BME280;58263;48.146;11.440;2024-03-08T12:30:48;94989.78;;;31.40;16.35
70684;BME280;58263;48.146;11.440;2024-03-08T12:33:14;94981.94;;;32.12;15.88
70684;BME280;58263;48.146;11.440;2024-03-08T12:35:39;94978.00;;;31.50;16.06
70684;BME280;58263;48.146;11.440;2024-03-08T12:38:06;94980.47;;;31.62;15.62
70684;BME280;58263;48.146;11.440;2024-03-08T12:40:33;94978.31;;;32.04;15.71
70684;BME280;58263;48.146;11.440;2024-03-08T12:43:05;94971.94;;;31.93;16.01
70684;BME280;58263;48.146;11.440;2024-03-08T12:45:31;94962.56;;;32.19;15.65
70684;BME280;58263;48.146;11.440;2024-03-08T12:47:57;94962.56;;;32.19;15.19
70684;BME280;58263;48.146;11.440;2024-03-08T12:50:24;94956.63;;;32.17;15.65
70684;BME280;58263;48.146;11.440;2024-03-08T12:52:50;94958.72;;;31.16;16.38
70684;BME280;58263;48.146;11.440;2024-03-08T12:55:18;94964.66;;;30.39;16.88
70684;BME280;58263;48.146;11.440;2024-03-08T12:57:44;94954.22;;;28.06;18.73
70684;BME280;58263;48.146;11.440;2024-03-08T13:00:10;94948.31;;;26.85;20.17
70684;BME280;58263;48.146;11.440;2024-03-08T13:02:39;94946.41;;;25.72;20.89
70684;BME280;58263;48.146;11.440;2024-03-08T13:05:05;94943.97;;;25.05;21.59